Time;durP1;ratioP1;P1;durP2;ratioP2;P2;SDS_P1;SDS_P2;PMS_P1;PMS_P2;Temp;Humidity;BMP_temperature;BMP_pressure;BME280_temperature;BME280_humidity;BME280_pressure;Samples;Min_cycle;Max_cycle;Signal;HPM_P1;HPM_P2
2024/01/28 00:01:40;;;;;;;9.80;7.00;;;;;;;20.60;29.64;101856.19;103795;1287;61372;-79
2024/01/28 00:04:08;;;;;;;9.20;6.80;;;;;;;20.60;29.55;101857.27;103857;1283;61267;-79
2024/01/28 00:06:34;;;;;;;8.30;6.30;;;;;;;20.60;29.66;101860.84;103883;1283;61378;-80
2024/01/28 00:09:00;;;;;;;9.20;6.70;;;;;;;20.60;29.54;101859.58;103699;1283;61333;-79
2024/01/28 00:11:26;;;;;;;9.30;7.00;;;;;;;20.60;29.70;101861.18;103709;1283;61381;-79
2024/01/28 00:13:54;;;;;;;9.50;6.40;;;;;;;20.60;29.73;101861.72;103641;1287;61359;-80
2024/01/28 00:16:20;;;;;;;10.10;7.30;;;;;;;20.61;29.66;101862.77;103802;1282;61844;-80
2024/01/28 00:18:48;;;;;;;9.40;6.30;;;;;;;20.60;29.49;101863.67;103881;1281;61342;-79
2024/01/28 00:21:14;;;;;;;9.90;7.00;;;;;;;20.61;29.73;101870.09;103677;1283;62155;-80
2024/01/28 00:23:40;;;;;;;9.40;6.30;;;;;;;20.61;29.67;101872.96;103676;1283;61847;-80
2024/01/28 00:26:07;;;;;;;8.90;6.70;;;;;;;20.62;29.63;101877.77;103599;1283;62106;-80
2024/01/28 00:28:33;;;;;;;8.80;6.30;;;;;;;20.61;29.64;101881.71;103720;1288;61424;-80
2024/01/28 00:30:58;;;;;;;10.10;6.30;;;;;;;20.61;29.73;101881.18;103480;1282;61335;-79
2024/01/28 00:33:24;;;;;;;9.60;6.70;;;;;;;20.62;29.72;101884.02;103535;1283;62354;-80
2024/01/28 00:35:50;;;;;;;9.70;6.10;;;;;;;20.62;29.56;101886.88;103504;1282;61268;-80
2024/01/28 00:38:15;;;;;;;8.50;6.30;;;;;;;20.62;29.52;101889.38;103419;1283;61519;-80
2024/01/28 00:40:41;;;;;;;8.90;6.30;;;;;;;20.62;29.60;101892.61;103438;1285;61454;-80
2024/01/28 00:43:10;;;;;;;8.80;6.40;;;;;;;20.62;29.55;101891.69;103843;1283;63002;-80
2024/01/28 00:45:39;;;;;;;9.20;6.20;;;;;;;20.62;29.65;101897.94;103714;1282;72551;-79
2024/01/28 00:48:04;;;;;;;9.10;6.70;;;;;;;20.63;29.47;101899.20;103527;1288;74498;-79
2024/01/28 00:50:30;;;;;;;8.50;6.00;;;;;;;20.62;29.70;101900.25;103627;1283;61761;-80
2024/01/28 00:52:56;;;;;;;9.00;6.50;;;;;;;20.63;29.68;101897.20;103585;1283;61480;-80
2024/01/28 00:55:22;;;;;;;8.80;6.50;;;;;;;20.63;29.56;101900.24;103515;1285;61350;-79
2024/01/28 00:57:48;;;;;;;9.90;6.60;;;;;;;20.63;29.57;101898.61;103695;1288;62097;-80
2024/01/28 01:00:14;;;;;;;8.30;6.10;;;;;;;20.63;29.60;101903.81;103823;1283;61311;-80
2024/01/28 01:02:39;;;;;;;7.70;6.10;;;;;;;20.64;29.50;101906.97;103913;1282;62764;-80
2024/01/28 01:05:06;;;;;;;8.00;5.80;;;;;;;20.64;29.53;101905.20;103698;1286;61257;-80
2024/01/28 01:07:31;;;;;;;8.30;5.90;;;;;;;20.64;29.64;101903.41;103725;1283;61413;-79
2024/01/28 01:09:57;;;;;;;8.70;6.10;;;;;;;20.64;29.53;101901.59;103418;1291;62399;-80
2024/01/28 01:12:23;;;;;;;10.30;6.90;;;;;;;20.64;29.55;101907.30;103760;1282;61368;-80
2024/01/28 01:14:49;;;;;;;9.30;6.70;;;;;;;20.65;29.61;101904.80;103624;1283;62444;-80
2024/01/28 01:17:15;;;;;;;8.30;5.90;;;;;;;20.65;29.50;101904.95;103774;1283;61388;-80
2024/01/28 01:19:41;;;;;;;9.30;6.10;;;;;;;20.65;29.52;101908.89;103827;1285;61448;-79
2024/01/28 01:22:07;;;;;;;9.20;6.50;;;;;;;20.65;29.57;101914.45;103677;1286;61304;-79
2024/01/28 01:24:32;;;;;;;10.50;6.00;;;;;;;20.65;29.49;101916.23;103654;1288;62533;-80
2024/01/28 01:26:58;;;;;;;8.00;5.90;;;;;;;20.65;29.41;101912.30;103680;1283;61844;-79
2024/01/28 01:29:24;;;;;;;8.50;6.50;;;;;;;20.65;29.45;101914.61;103678;1283;61756;-79
2024/01/28 01:31:50;;;;;;;9.20;6.20;;;;;;;20.65;29.57;101913.17;103840;1285;61358;-79
2024/01/28 01:34:17;;;;;;;7.30;5.80;;;;;;;20.65;29.44;101913.52;103590;1286;61266;-79
2024/01/28 01:36:44;;;;;;;8.80;6.20;;;;;;;20.65;29.45;101917.66;103991;1286;61308;-80
2024/01/28 01:39:10;;;;;;;8.80;6.10;;;;;;;20.65;29.46;101920.14;103552;1289;62411;-80
2024/01/28 01:41:35;;;;;;;7.90;6.00;;;;;;;20.65;29.37;101915.11;103796;1283;61465;-79
2024/01/28 01:44:01;;;;;;;8.10;5.70;;;;;;;20.65;29.38;101913.86;103832;1285;61432;-78
2024/01/28 01:46:27;;;;;;;8.90;6.50;;;;;;;20.65;29.53;101911.73;103752;1283;61502;-79
2024/01/28 01:48:53;;;;;;;8.50;5.90;;;;;;;20.66;29.49;101915.45;103519;1283;62563;-80
2024/01/28 01:51:21;;;;;;;9.80;5.90;;;;;;;20.66;29.41;101917.08;103814;1285;61294;-80
2024/01/28 01:53:50;;;;;;;8.40;5.90;;;;;;;20.66;29.47;101921.18;103695;1282;74761;-78
2024/01/28 01:56:16;;;;;;;8.20;5.90;;;;;;;20.67;29.41;101928.84;103690;1283;61365;-80
2024/01/28 01:58:43;;;;;;;7.80;6.10;;;;;;;20.66;29.57;101932.79;103607;1283;61410;-80
2024/01/28 02:01:09;;;;;;;8.00;6.10;;;;;;;20.67;29.42;101937.08;103477;1283;61391;-80
2024/01/28 02:03:35;;;;;;;8.10;6.10;;;;;;;20.66;29.32;101942.45;103712;1282;61330;-79
2024/01/28 02:06:01;;;;;;;8.50;6.20;;;;;;;20.67;29.36;101946.73;103756;1283;62723;-79
2024/01/28 02:08:28;;;;;;;8.60;5.80;;;;;;;20.67;29.48;101947.79;103680;1283;61371;-80
2024/01/28 02:10:54;;;;;;;10.00;6.10;;;;;;;20.67;29.35;101952.44;103730;1289;61359;-79
2024/01/28 02:13:19;;;;;;;8.70;6.40;;;;;;;20.67;29.46;101958.16;103614;1288;62421;-80
2024/01/28 02:15:45;;;;;;;8.90;6.50;;;;;;;20.67;29.42;101960.65;103702;1283;61384;-80
2024/01/28 02:18:15;;;;;;;8.70;6.10;;;;;;;20.68;29.24;101957.41;103541;1288;62919;-79
2024/01/28 02:20:42;;;;;;;;;;;;;;;20.68;29.40;101963.86;103711;1283;62556;-80
2024/01/28 02:23:08;;;;;;;9.40;6.00;;;;;;;20.65;29.37;101965.95;103673;1283;72413;-80
2024/01/28 02:25:34;;;;;;;8.00;5.60;;;;;;;20.66;29.45;101963.55;103645;1288;61435;-80
2024/01/28 02:28:09;;;;;;;9.20;5.70;;;;;;;20.67;29.42;101956.92;103786;1283;61858;-80
2024/01/28 02:30:35;;;;;;;9.40;6.20;;;;;;;20.67;29.44;101952.98;103699;1283;61632;-79
2024/01/28 02:33:01;;;;;;;8.00;6.00;;;;;;;20.67;29.40;101956.56;103687;1286;61377;-79
2024/01/28 02:35:27;;;;;;;7.80;5.90;;;;;;;20.67;29.25;101958.34;103666;1288;61432;-79
2024/01/28 02:37:52;;;;;;;10.10;6.10;;;;;;;20.67;29.44;101958.49;103982;1283;62648;-79
2024/01/28 02:40:18;;;;;;;8.70;5.90;;;;;;;20.68;29.30;101962.41;103717;1288;61360;-79
2024/01/28 02:42:44;;;;;;;7.30;5.60;;;;;;;20.68;29.34;101966.89;103688;1283;62423;-80
2024/01/28 02:45:09;;;;;;;8.30;5.70;;;;;;;20.68;29.34;101967.40;103799;1283;72539;-80
2024/01/28 02:47:35;;;;;;;7.40;5.70;;;;;;;20.69;29.35;101965.80;103632;1283;61811;-80
2024/01/28 02:50:02;;;;;;;9.50;5.50;;;;;;;20.69;29.30;101969.36;103456;1283;61836;-79
2024/01/28 02:52:28;;;;;;;8.80;5.80;;;;;;;20.68;29.31;101969.37;103634;1286;61457;-80
2024/01/28 02:54:53;;;;;;;8.00;5.30;;;;;;;20.69;29.21;101969.17;103851;1288;62166;-78
2024/01/28 02:57:19;;;;;;;8.20;6.00;;;;;;;20.69;29.37;101975.07;103692;1283;61391;-79
2024/01/28 02:59:45;;;;;;;8.50;6.10;;;;;;;20.69;29.16;101973.10;103658;1283;61391;-80
2024/01/28 03:02:11;;;;;;;9.10;5.80;;;;;;;20.69;29.14;101972.40;103657;1283;61327;-79
2024/01/28 03:04:37;;;;;;;8.00;5.80;;;;;;;20.69;29.19;101977.92;103846;1282;61786;-79
2024/01/28 03:07:03;;;;;;;7.50;5.50;;;;;;;20.69;29.29;101980.95;103538;1288;61332;-79
2024/01/28 03:09:29;;;;;;;9.20;5.90;;;;;;;20.70;29.21;101981.98;103642;1283;62630;-80
2024/01/28 03:11:55;;;;;;;8.20;5.80;;;;;;;20.69;29.24;101987.21;103554;1286;61419;-80
2024/01/28 03:14:21;;;;;;;8.70;6.40;;;;;;;20.69;29.24;101988.46;103681;1282;61369;-80
2024/01/28 03:16:48;;;;;;;9.40;6.00;;;;;;;20.70;29.31;101991.66;103525;1283;62613;-80
2024/01/28 03:19:16;;;;;;;9.70;6.40;;;;;;;20.70;29.20;101991.14;103811;1283;72456;-80
2024/01/28 03:21:42;;;;;;;7.90;5.80;;;;;;;20.70;29.35;101995.58;103511;1283;75664;-80
2024/01/28 03:24:07;;;;;;;8.00;5.80;;;;;;;20.70;29.27;101992.53;103698;1286;61380;-80
2024/01/28 03:26:34;;;;;;;8.70;6.20;;;;;;;20.70;29.26;101994.14;103518;1287;61376;-80
2024/01/28 03:29:01;;;;;;;8.30;5.80;;;;;;;20.71;29.33;101996.83;103478;1286;62500;-79
2024/01/28 03:31:28;;;;;;;7.80;5.50;;;;;;;20.71;29.24;101997.35;103554;1286;61411;-80
2024/01/28 03:33:54;;;;;;;7.00;4.90;;;;;;;20.71;29.24;101999.10;103545;1289;61992;-79
2024/01/28 03:36:20;;;;;;;8.30;5.60;;;;;;;20.71;29.42;101997.85;103561;1284;61471;-79
2024/01/28 03:38:45;;;;;;;8.20;5.40;;;;;;;20.71;29.23;101991.09;103389;1291;61800;-80
2024/01/28 03:41:13;;;;;;;8.70;5.80;;;;;;;20.71;29.19;101989.46;103454;1283;62287;-80
2024/01/28 03:43:39;;;;;;;9.10;5.80;;;;;;;20.71;29.20;101989.29;103488;1291;61365;-79
2024/01/28 03:46:09;;;;;;;8.90;5.80;;;;;;;20.71;29.11;101988.75;103760;1286;62573;-79
2024/01/28 03:48:35;;;;;;;8.40;6.30;;;;;;;20.71;29.16;101991.59;103518;1285;72485;-79
2024/01/28 03:51:02;;;;;;;8.00;5.80;;;;;;;20.71;29.19;101996.97;103565;1288;61439;-79
2024/01/28 03:53:28;;;;;;;8.60;6.00;;;;;;;20.71;29.14;102004.29;103538;1284;61287;-80
2024/01/28 03:55:54;;;;;;;7.70;5.90;;;;;;;20.71;29.17;102007.16;103696;1285;61397;-79
2024/01/28 03:58:19;;;;;;;8.50;5.90;;;;;;;20.72;29.31;102012.86;103704;1283;61722;-79
2024/01/28 04:00:46;;;;;;;7.60;5.60;;;;;;;20.72;29.06;102015.90;103431;1286;61964;-80
2024/01/28 04:03:16;;;;;;;8.00;5.50;;;;;;;20.72;29.32;102019.82;103717;1287;61377;-79
2024/01/28 04:05:43;;;;;;;;;;;;;;;20.72;29.29;102022.68;103603;1286;61413;-79
2024/01/28 04:08:12;;;;;;;7.50;5.80;;;;;;;20.70;29.14;102024.77;103616;1285;72474;-79
2024/01/28 04:10:38;;;;;;;9.50;6.00;;;;;;;20.71;29.25;102027.55;103558;1288;75812;-80
2024/01/28 04:13:04;;;;;;;9.00;5.90;;;;;;;20.71;29.15;102028.27;103525;1285;61394;-79
2024/01/28 04:15:30;;;;;;;9.80;6.20;;;;;;;20.71;29.20;102030.59;103491;1286;61832;-79
2024/01/28 04:17:56;;;;;;;8.50;5.90;;;;;;;20.72;29.07;102034.34;103466;1290;61534;-80
2024/01/28 04:20:21;;;;;;;10.60;5.90;;;;;;;20.71;29.14;102035.43;103499;1289;61323;-80
2024/01/28 04:22:47;;;;;;;8.60;6.10;;;;;;;20.72;29.07;102036.11;103686;1288;61457;-79
2024/01/28 04:25:13;;;;;;;10.70;6.20;;;;;;;20.72;29.16;102036.81;103426;1289;61319;-80
2024/01/28 04:27:40;;;;;;;8.00;5.80;;;;;;;20.72;29.12;102038.98;103487;1291;61874;-80
2024/01/28 04:30:06;;;;;;;7.90;5.90;;;;;;;20.72;29.12;102043.27;103443;1289;72156;-80
2024/01/28 04:32:32;;;;;;;9.30;6.20;;;;;;;20.72;29.04;102047.72;103784;1286;61312;-79
2024/01/28 04:34:57;;;;;;;9.00;6.10;;;;;;;20.72;29.12;102050.39;103624;1288;61367;-80
2024/01/28 04:37:26;;;;;;;8.70;5.90;;;;;;;20.72;29.32;102050.21;103455;1288;62184;-80
2024/01/28 04:39:53;;;;;;;10.30;6.30;;;;;;;20.72;29.20;102050.05;103618;1287;61378;-79
2024/01/28 04:42:22;;;;;;;8.80;6.10;;;;;;;20.73;29.29;102054.30;103367;1289;74470;-79
2024/01/28 04:44:51;;;;;;;9.10;6.50;;;;;;;20.73;29.20;102064.48;103455;1287;62423;-79
2024/01/28 04:47:17;;;;;;;7.80;6.00;;;;;;;20.73;29.21;102061.63;103601;1285;61394;-78
2024/01/28 04:49:43;;;;;;;8.30;6.20;;;;;;;20.73;29.24;102065.41;103472;1288;62443;-80
2024/01/28 04:52:09;;;;;;;8.50;6.10;;;;;;;20.74;29.15;102065.02;103490;1288;61381;-80
2024/01/28 04:54:35;;;;;;;9.20;6.20;;;;;;;20.73;29.17;102066.45;103773;1289;61423;-79
2024/01/28 04:57:01;;;;;;;9.90;6.10;;;;;;;20.74;29.16;102073.59;103487;1286;61500;-79
2024/01/28 04:59:27;;;;;;;9.60;5.90;;;;;;;20.74;29.19;102073.23;103516;1288;61444;-79
2024/01/28 05:01:54;;;;;;;9.50;6.10;;;;;;;20.74;29.20;102078.02;103741;1286;61310;-80
2024/01/28 05:04:19;;;;;;;8.90;5.90;;;;;;;20.74;29.23;102077.31;103710;1288;61920;-79
2024/01/28 05:06:45;;;;;;;8.80;6.20;;;;;;;20.74;29.08;102083.02;103595;1288;62650;-79
2024/01/28 05:09:11;;;;;;;8.40;5.70;;;;;;;20.74;29.22;102085.91;103471;1288;62022;-79
2024/01/28 05:11:37;;;;;;;8.70;6.10;;;;;;;20.74;29.15;102089.83;103547;1288;61467;-80
2024/01/28 05:14:04;;;;;;;9.50;6.10;;;;;;;20.74;29.04;102094.83;103644;1288;61381;-79
2024/01/28 05:16:30;;;;;;;8.90;5.90;;;;;;;20.74;29.17;102096.44;103669;1288;61378;-79
2024/01/28 05:18:56;;;;;;;8.50;6.30;;;;;;;20.75;29.05;102097.70;103456;1286;61401;-80
2024/01/28 05:21:23;;;;;;;7.90;5.80;;;;;;;20.75;29.05;102100.52;103408;1282;62494;-80
2024/01/28 05:23:50;;;;;;;8.60;5.90;;;;;;;20.75;29.08;102104.27;103614;1288;61374;-79
2024/01/28 05:26:17;;;;;;;7.60;5.40;;;;;;;20.75;29.21;102109.46;103516;1289;61464;-79
2024/01/28 05:28:42;;;;;;;8.90;6.30;;;;;;;20.75;29.29;102112.16;103464;1283;61800;-79
2024/01/28 05:31:08;;;;;;;7.70;6.00;;;;;;;20.76;29.11;102115.52;103522;1288;61294;-79
2024/01/28 05:33:37;;;;;;;7.90;6.00;;;;;;;20.75;29.11;102117.68;103881;1288;61314;-78
2024/01/28 05:36:13;;;;;;;9.40;6.90;;;;;;;20.76;29.02;102120.70;103576;1288;61466;-80
2024/01/28 05:38:39;;;;;;;8.40;5.90;;;;;;;20.76;29.18;102124.98;103549;1283;61294;-80
2024/01/28 05:41:05;;;;;;;8.90;6.30;;;;;;;20.76;29.10;102121.42;103577;1288;61561;-79
2024/01/28 05:43:31;;;;;;;9.70;6.20;;;;;;;20.76;29.12;102122.86;103974;1290;61282;-79
2024/01/28 05:46:00;;;;;;;7.70;5.60;;;;;;;20.77;29.16;102123.53;103534;1289;62028;-79
2024/01/28 05:48:25;;;;;;;9.20;6.30;;;;;;;20.76;28.99;102129.27;103436;1291;61394;-79
2024/01/28 05:50:51;;;;;;;9.40;6.40;;;;;;;20.77;29.05;102128.35;103826;1282;62577;-79
2024/01/28 05:53:17;;;;;;;9.90;6.60;;;;;;;20.77;29.06;102135.52;103491;1288;61832;-79
2024/01/28 05:55:43;;;;;;;8.40;6.10;;;;;;;20.77;29.18;102139.42;103407;1289;61451;-80
2024/01/28 05:58:09;;;;;;;9.90;6.30;;;;;;;20.78;29.13;102140.67;103490;1283;62459;-80
2024/01/28 06:00:35;;;;;;;9.70;6.40;;;;;;;20.78;29.10;102145.49;103630;1288;61394;-79
2024/01/28 06:03:00;;;;;;;8.20;6.20;;;;;;;20.78;29.08;102152.98;103572;1289;72645;-79
2024/01/28 06:05:26;;;;;;;8.40;6.40;;;;;;;20.78;29.16;102155.14;103519;1288;61384;-78
2024/01/28 06:07:52;;;;;;;9.00;6.10;;;;;;;20.78;29.02;102157.63;103499;1282;61398;-79
2024/01/28 06:10:18;;;;;;;9.00;6.60;;;;;;;20.78;29.28;102157.13;103538;1288;61416;-79
2024/01/28 06:12:44;;;;;;;8.40;6.40;;;;;;;20.78;29.10;102160.68;103525;1290;61477;-79
2024/01/28 06:15:10;;;;;;;10.60;6.70;;;;;;;20.78;29.07;102162.14;103615;1286;62134;-79
2024/01/28 06:17:39;;;;;;;8.30;6.20;;;;;;;20.78;29.20;102164.44;103480;1291;61398;-78
2024/01/28 06:20:06;;;;;;;9.30;6.50;;;;;;;20.78;28.93;102167.11;103746;1283;61314;-80
2024/01/28 06:22:34;;;;;;;8.60;6.40;;;;;;;20.78;29.08;102169.27;103428;1292;61282;-81
2024/01/28 06:25:01;;;;;;;;;;;;;;;20.79;28.93;102173.36;103522;1283;71545;-80
2024/01/28 06:27:27;;;;;;;9.30;6.40;;;;;;;20.76;29.11;102181.35;103641;1288;62573;-79
2024/01/28 06:29:54;;;;;;;9.40;6.80;;;;;;;20.76;29.15;102179.89;103514;1288;62166;-80
2024/01/28 06:32:21;;;;;;;11.00;7.00;;;;;;;20.77;29.02;102179.52;103515;1287;61326;-78
2024/01/28 06:34:49;;;;;;;9.50;7.40;;;;;;;20.77;29.00;102180.39;103452;1288;72482;-80
2024/01/28 06:37:14;;;;;;;8.90;6.50;;;;;;;20.77;29.04;102178.46;103405;1289;74427;-80
2024/01/28 06:39:40;;;;;;;8.60;6.90;;;;;;;20.77;29.05;102181.85;103509;1286;61397;-80
2024/01/28 06:42:07;;;;;;;10.20;7.40;;;;;;;20.77;29.00;102186.66;103685;1288;61710;-79
2024/01/28 06:44:33;;;;;;;9.50;7.10;;;;;;;20.78;29.14;102191.84;103477;1286;61388;-80
2024/01/28 06:46:59;;;;;;;9.50;7.30;;;;;;;20.78;29.13;102193.98;103486;1291;61391;-79
2024/01/28 06:49:25;;;;;;;9.90;6.90;;;;;;;20.78;29.01;102194.33;103853;1288;61545;-79
2024/01/28 06:51:52;;;;;;;10.40;6.70;;;;;;;20.78;28.97;102196.66;103571;1288;61371;-80
2024/01/28 06:54:19;;;;;;;10.00;7.30;;;;;;;20.78;29.00;102195.92;103513;1288;61378;-80
2024/01/28 06:56:45;;;;;;;10.70;7.10;;;;;;;20.79;28.98;102200.38;103532;1289;61820;-79
2024/01/28 06:59:11;;;;;;;8.80;7.10;;;;;;;20.78;29.05;102200.39;103681;1288;62563;-79
2024/01/28 07:01:37;;;;;;;10.30;7.20;;;;;;;20.78;28.97;102198.77;103676;1283;61374;-80
2024/01/28 07:04:03;;;;;;;9.00;6.80;;;;;;;20.79;29.08;102201.27;103469;1296;61497;-80
2024/01/28 07:06:29;;;;;;;11.90;7.10;;;;;;;20.79;29.03;102201.23;103707;1285;62597;-80
2024/01/28 07:08:56;;;;;;;11.00;7.30;;;;;;;20.79;28.99;102201.26;103437;1289;74537;-79
2024/01/28 07:11:22;;;;;;;9.60;7.50;;;;;;;20.79;29.02;102200.36;103633;1289;61327;-79
2024/01/28 07:13:48;;;;;;;9.30;6.80;;;;;;;20.79;29.01;102199.84;103694;1283;62489;-79
2024/01/28 07:16:14;;;;;;;11.00;7.30;;;;;;;20.79;28.88;102196.98;103544;1288;61348;-80
2024/01/28 07:18:39;;;;;;;9.80;7.20;;;;;;;20.79;28.93;102200.90;103457;1289;63052;-80
2024/01/28 07:21:05;;;;;;;10.70;7.40;;;;;;;20.79;29.01;102203.02;103558;1289;61293;-79
2024/01/28 07:23:31;;;;;;;9.80;7.60;;;;;;;20.80;29.00;102206.77;103589;1283;61381;-80
2024/01/28 07:25:57;;;;;;;11.00;7.90;;;;;;;20.79;29.05;102209.13;103795;1281;62736;-79
2024/01/28 07:28:23;;;;;;;11.70;7.80;;;;;;;20.80;29.04;102205.34;103528;1283;71306;-80
2024/01/28 07:30:49;;;;;;;9.60;7.40;;;;;;;20.80;28.99;102201.77;103833;1283;61746;-79
2024/01/28 07:33:17;;;;;;;8.90;6.90;;;;;;;20.80;29.00;102202.27;103691;1286;61755;-79
2024/01/28 07:35:42;;;;;;;12.00;8.00;;;;;;;20.80;28.92;102204.79;103804;1284;61628;-80
2024/01/28 07:38:11;;;;;;;11.10;7.90;;;;;;;20.80;28.99;102211.59;103743;1285;61476;-78
2024/01/28 07:40:39;;;;;;;10.20;7.50;;;;;;;20.80;28.94;102219.98;103627;1286;73947;-80
2024/01/28 07:43:05;;;;;;;11.20;7.90;;;;;;;20.80;28.99;102226.77;103667;1287;61374;-80
2024/01/28 07:45:34;;;;;;;12.30;7.90;;;;;;;20.80;28.93;102228.23;103743;1283;61403;-79
2024/01/28 07:47:59;;;;;;;11.00;8.10;;;;;;;20.80;29.02;102227.52;103716;1287;73250;-79
2024/01/28 07:50:25;;;;;;;9.30;7.00;;;;;;;20.80;28.90;102224.64;103550;1286;62584;-80
2024/01/28 07:52:51;;;;;;;11.20;7.90;;;;;;;20.81;28.91;102228.36;103775;1283;61397;-79
2024/01/28 07:55:17;;;;;;;10.10;7.30;;;;;;;20.81;28.96;102224.59;103701;1283;61486;-78
2024/01/28 07:57:42;;;;;;;10.70;7.50;;;;;;;20.81;28.90;102227.11;103545;1286;61432;-80
2024/01/28 08:00:12;;;;;;;9.80;7.40;;;;;;;20.81;28.93;102227.65;103817;1286;61395;-79
2024/01/28 08:02:37;;;;;;;;;;;;;;;20.81;29.14;102227.80;103601;1286;74556;-80
2024/01/28 08:05:04;;;;;;;10.20;7.40;;;;;;;20.79;29.06;102228.82;103677;1286;62225;-79
2024/01/28 08:07:30;;;;;;;10.60;8.10;;;;;;;20.79;28.87;102232.02;103775;1287;61390;-79
2024/01/28 08:09:56;;;;;;;8.50;6.50;;;;;;;20.80;29.02;102235.39;103692;1283;61456;-79
2024/01/28 08:12:22;;;;;;;10.00;7.20;;;;;;;20.80;28.92;102239.86;103600;1286;61388;-80
2024/01/28 08:14:48;;;;;;;10.80;7.70;;;;;;;20.80;28.88;102240.03;103707;1287;62668;-80
2024/01/28 08:17:14;;;;;;;10.70;7.50;;;;;;;20.81;28.82;102244.47;103688;1286;62518;-80
2024/01/28 08:19:40;;;;;;;8.80;7.30;;;;;;;20.81;28.93;102245.54;103557;1298;61382;-79
2024/01/28 08:22:05;;;;;;;10.90;7.50;;;;;;;20.81;28.98;102246.41;103738;1285;61964;-79
2024/01/28 08:24:32;;;;;;;10.50;7.60;;;;;;;20.82;29.01;102246.55;103517;1286;72197;-79
2024/01/28 08:26:58;;;;;;;10.10;7.50;;;;;;;20.82;28.89;102239.59;103834;1285;61314;-79
2024/01/28 08:29:25;;;;;;;10.50;7.40;;;;;;;20.82;28.77;102237.08;103693;1286;62607;-80
2024/01/28 08:31:51;;;;;;;8.90;6.80;;;;;;;20.83;28.86;102239.52;103812;1283;61301;-79
2024/01/28 08:34:16;;;;;;;11.00;7.60;;;;;;;20.83;28.87;102248.12;103635;1286;62495;-78
2024/01/28 08:36:42;;;;;;;9.40;7.30;;;;;;;20.83;28.79;102254.20;103636;1283;62054;-80
2024/01/28 08:39:09;;;;;;;9.20;7.20;;;;;;;20.84;28.88;102253.09;103785;1286;61381;-79
2024/01/28 08:41:39;;;;;;;9.20;6.70;;;;;;;20.83;28.95;102256.88;103466;1284;61603;-80
2024/01/28 08:44:05;;;;;;;10.80;7.80;;;;;;;20.83;28.87;102259.91;103543;1288;74939;-80
2024/01/28 08:46:32;;;;;;;9.50;7.10;;;;;;;20.84;28.84;102265.44;103837;1283;61293;-79
2024/01/28 08:48:58;;;;;;;12.80;7.80;;;;;;;20.84;28.89;102266.48;103830;1285;62466;-79
2024/01/28 08:51:24;;;;;;;10.60;7.60;;;;;;;20.84;28.72;102269.52;103592;1283;61358;-82
2024/01/28 08:53:50;;;;;;;10.20;7.00;;;;;;;20.84;28.91;102274.36;103688;1286;61381;-80
2024/01/28 08:56:15;;;;;;;10.40;7.70;;;;;;;20.85;28.82;102281.69;103900;1286;62412;-79
2024/01/28 08:58:41;;;;;;;10.70;7.80;;;;;;;20.85;28.81;102282.92;103603;1286;61501;-80
2024/01/28 09:01:08;;;;;;;9.00;6.60;;;;;;;20.85;28.81;102284.52;103645;1283;62179;-79
2024/01/28 09:03:33;;;;;;;9.70;7.50;;;;;;;20.85;28.70;102283.64;103740;1286;61310;-80
2024/01/28 09:06:02;;;;;;;10.20;7.20;;;;;;;20.85;28.80;102287.03;103735;1281;74412;-80
2024/01/28 09:08:30;;;;;;;10.20;7.40;;;;;;;20.85;28.82;102285.96;103877;1283;61388;-79
2024/01/28 09:10:56;;;;;;;10.90;7.40;;;;;;;20.85;28.75;102284.51;103589;1283;62539;-79
2024/01/28 09:13:24;;;;;;;10.00;7.30;;;;;;;20.86;28.72;102284.30;103505;1283;61301;-79
2024/01/28 09:15:50;;;;;;;11.30;7.70;;;;;;;20.86;28.89;102289.13;103711;1287;74346;-79
2024/01/28 09:18:16;;;;;;;11.60;7.40;;;;;;;20.86;28.89;102293.59;103563;1283;61475;-80
2024/01/28 09:20:42;;;;;;;10.80;7.80;;;;;;;20.87;28.81;102288.20;103512;1289;61339;-79
2024/01/28 09:23:08;;;;;;;11.40;7.50;;;;;;;20.87;28.77;102290.33;103614;1296;61387;-80
2024/01/28 09:25:34;;;;;;;10.40;7.40;;;;;;;20.88;28.81;102291.02;103683;1286;61461;-80
2024/01/28 09:28:00;;;;;;;10.80;7.50;;;;;;;20.88;28.78;102293.35;103532;1286;62047;-79
2024/01/28 09:30:26;;;;;;;10.40;7.30;;;;;;;20.87;28.78;102292.25;103529;1283;62065;-79
2024/01/28 09:32:51;;;;;;;10.90;7.20;;;;;;;20.88;28.82;102290.78;103819;1283;61794;-80
2024/01/28 09:35:17;;;;;;;10.10;7.40;;;;;;;20.89;28.68;102293.96;103389;1283;62467;-80
2024/01/28 09:37:43;;;;;;;11.10;7.80;;;;;;;20.90;28.84;102293.39;103590;1283;61383;-82
2024/01/28 09:40:12;;;;;;;9.80;7.20;;;;;;;20.91;28.70;102295.35;103671;1280;61439;-79
2024/01/28 09:42:59;;;;;;;11.10;7.40;;;;;;;20.90;28.70;102294.85;103654;1288;61374;-80
2024/01/28 09:45:26;;;;;;;10.00;7.50;;;;;;;20.90;28.78;102296.45;103774;1282;72462;-80
2024/01/28 09:47:52;;;;;;;10.10;7.50;;;;;;;20.91;28.83;102300.52;103693;1283;74554;-79
2024/01/28 09:50:17;;;;;;;9.50;7.30;;;;;;;20.91;28.79;102298.19;103533;1288;61835;-79
2024/01/28 09:52:43;;;;;;;9.90;7.60;;;;;;;20.91;28.89;102296.04;103630;1283;62534;-80
2024/01/28 09:55:09;;;;;;;9.80;7.50;;;;;;;20.92;28.76;102296.73;103617;1288;61390;-79
2024/01/28 09:57:35;;;;;;;13.60;7.80;;;;;;;20.92;28.77;102300.98;103652;1286;61406;-79
2024/01/28 10:00:00;;;;;;;10.10;7.50;;;;;;;20.92;28.69;102297.97;103544;1283;61462;-80
2024/01/28 10:02:26;;;;;;;10.00;7.30;;;;;;;20.92;28.74;102299.58;103767;1283;61372;-80
2024/01/28 10:04:52;;;;;;;9.60;7.20;;;;;;;20.93;28.83;102294.73;104017;1286;61291;-79
2024/01/28 10:07:18;;;;;;;8.80;6.90;;;;;;;20.93;28.88;102294.88;103635;1283;61317;-79
2024/01/28 10:09:45;;;;;;;10.50;8.00;;;;;;;20.93;28.78;102293.10;103675;1286;62557;-81
2024/01/28 10:12:10;;;;;;;9.90;7.50;;;;;;;20.94;28.86;102297.89;103857;1285;61387;-79
2024/01/28 10:14:36;;;;;;;9.40;6.80;;;;;;;20.94;28.88;102301.27;103873;1283;62649;-80
2024/01/28 10:17:02;;;;;;;10.80;7.90;;;;;;;20.95;28.74;102299.83;103499;1288;61402;-80
2024/01/28 10:19:28;;;;;;;10.50;7.50;;;;;;;20.95;28.85;102298.21;103861;1283;61397;-78
2024/01/28 10:21:54;;;;;;;9.80;7.20;;;;;;;20.96;28.70;102296.57;103653;1283;75264;-79
2024/01/28 10:24:19;;;;;;;11.00;7.20;;;;;;;20.96;28.77;102297.48;103469;1288;61887;-80
2024/01/28 10:26:45;;;;;;;10.00;6.90;;;;;;;20.96;28.61;102298.14;103701;1286;62551;-79
2024/01/28 10:29:12;;;;;;;11.10;7.50;;;;;;;20.97;28.77;102297.05;103724;1288;61335;-78
2024/01/28 10:31:38;;;;;;;9.20;6.90;;;;;;;20.97;28.72;102294.19;103845;1285;62513;-79
2024/01/28 10:34:03;;;;;;;10.50;7.10;;;;;;;20.98;28.72;102295.05;103856;1286;62160;-79
2024/01/28 10:36:33;;;;;;;10.30;6.80;;;;;;;20.98;28.86;102295.94;103616;1288;61412;-80
2024/01/28 10:39:08;;;;;;;9.70;7.10;;;;;;;20.98;28.76;102299.52;103644;1282;61889;-79
2024/01/28 10:41:34;;;;;;;11.20;7.10;;;;;;;20.99;28.61;102294.63;103635;1282;72605;-80
2024/01/28 10:44:02;;;;;;;8.10;6.40;;;;;;;20.99;28.68;102295.52;103527;1290;61374;-79
2024/01/28 10:46:39;;;;;;;9.90;6.60;;;;;;;20.98;28.59;102294.46;103591;1282;61395;-79
2024/01/28 10:49:06;;;;;;;9.20;6.90;;;;;;;20.99;28.64;102296.95;103592;1288;61337;-80
2024/01/28 10:51:37;;;;;;;10.80;7.10;;;;;;;20.98;28.66;102297.55;103349;1288;71519;-78
2024/01/28 10:54:04;;;;;;;8.40;6.40;;;;;;;20.96;28.82;102296.70;104048;1282;74760;-78
2024/01/28 10:56:39;;;;;;;9.90;6.90;;;;;;;20.95;28.60;102301.05;103712;1286;61365;-79
2024/01/28 10:59:05;;;;;;;10.50;6.40;;;;;;;20.94;28.70;102297.90;103572;1284;61333;-79
2024/01/28 11:01:31;;;;;;;9.70;6.90;;;;;;;20.92;28.68;102299.59;103565;1282;61368;-79
2024/01/28 11:03:57;;;;;;;10.10;6.80;;;;;;;20.91;28.71;102294.64;103811;1289;61383;-80
2024/01/28 11:06:27;;;;;;;8.90;6.40;;;;;;;20.88;28.72;102292.45;103561;1288;61767;-79
2024/01/28 11:08:56;;;;;;;9.80;6.60;;;;;;;20.86;28.81;102295.20;103493;1285;61445;-80
2024/01/28 11:11:22;;;;;;;9.30;6.40;;;;;;;20.84;28.81;102294.58;103506;1282;72554;-80
2024/01/28 11:13:48;;;;;;;9.70;7.00;;;;;;;20.81;28.82;102294.55;103520;1282;62468;-80